Terminal Aerodrome Forecast
Issued by NWS

Home | Current Version | Previous Version | Text Only | Print | Product List | Glossary On
Versions: 1 2 3 4 5 6 7 8 9 10 11 12 13 14 15 16 17
000
FTUS43 KICT 300500
TAFHUT
TAF
KHUT 300520Z 3006/3106 09010KT P6SM SCT120 BKN250
     FM300700 10006KT P6SM VCSH SCT040 OVC070
     FM301000 09007KT P6SM SHRA SCT015 OVC025
     FM301400 11007KT 5SM SHRA BR VCTS SCT008 OVC015CB
     FM310000 VRB05KT P6SM SCT020 BKN050=

USA.gov is the U.S. government's official web portal to all federal, state and local government web resources and services.